createdAt,value
2023-02-09T00:00:12.936Z,-1.87
2023-02-09T00:01:12.908Z,-1.87
2023-02-09T00:02:13.004Z,-1.85
2023-02-09T00:03:12.899Z,-1.82
2023-02-09T00:04:12.899Z,-1.79
2023-02-09T00:05:12.903Z,-1.74
2023-02-09T00:06:12.864Z,-1.74
2023-02-09T00:07:12.818Z,-1.72
2023-02-09T00:08:12.841Z,-1.74
2023-02-09T00:09:12.813Z,-1.76
2023-02-09T00:10:12.812Z,-1.77
2023-02-09T00:11:12.767Z,-1.76
2023-02-09T00:12:12.788Z,-1.73
2023-02-09T00:13:12.753Z,-1.72
2023-02-09T00:14:12.801Z,-1.70
2023-02-09T00:15:12.729Z,-1.67
2023-02-09T00:16:12.756Z,-1.67
2023-02-09T00:17:12.687Z,-1.67
2023-02-09T00:18:12.714Z,-1.67
2023-02-09T00:19:12.665Z,-1.67
2023-02-09T00:20:12.707Z,-1.67
2023-02-09T00:21:12.652Z,-1.70
2023-02-09T00:22:12.653Z,-1.74
2023-02-09T00:23:12.622Z,-1.74
2023-02-09T00:24:12.637Z,-1.77
2023-02-09T00:25:12.604Z,-1.80
2023-02-09T00:26:12.624Z,-1.85
2023-02-09T00:27:12.562Z,-1.90
2023-02-09T00:28:12.614Z,-1.94
2023-02-09T00:29:12.542Z,-2.02
2023-02-09T00:30:12.579Z,-2.10
2023-02-09T00:31:12.638Z,-2.12
2023-02-09T00:32:12.586Z,-2.12
2023-02-09T00:33:12.497Z,-2.10
2023-02-09T00:34:12.517Z,-2.08
2023-02-09T00:35:12.490Z,-2.05
2023-02-09T00:36:12.492Z,-2.03
2023-02-09T00:37:12.440Z,-2.02
2023-02-09T00:38:12.476Z,-2.02
2023-02-09T00:39:12.442Z,-2.00
2023-02-09T00:40:12.446Z,-1.98
2023-02-09T00:41:12.412Z,-1.97
2023-02-09T00:42:12.377Z,-1.94
2023-02-09T00:43:12.396Z,-1.92
2023-02-09T00:44:12.349Z,-1.90
2023-02-09T00:45:12.387Z,-1.87
2023-02-09T00:46:12.374Z,-1.85
2023-02-09T00:47:12.342Z,-1.82
2023-02-09T00:48:12.301Z,-1.84
2023-02-09T00:49:12.306Z,-1.87
2023-02-09T00:50:12.275Z,-1.97
2023-02-09T00:51:12.315Z,-2.05
2023-02-09T00:52:12.257Z,-2.08
2023-02-09T00:53:12.284Z,-2.10
2023-02-09T00:54:12.214Z,-2.10
2023-02-09T00:55:12.234Z,-2.10
2023-02-09T00:56:12.200Z,-2.10
2023-02-09T00:57:12.203Z,-2.12
2023-02-09T00:58:12.182Z,-2.13
2023-02-09T00:59:12.210Z,-2.10
2023-02-09T01:00:12.156Z,-2.12
2023-02-09T01:01:12.278Z,-2.12
2023-02-09T01:02:12.153Z,-2.10
2023-02-09T01:03:12.140Z,-2.10
2023-02-09T01:04:12.344Z,-2.08
2023-02-09T01:05:12.103Z,-2.05
2023-02-09T01:06:12.061Z,-2.02
2023-02-09T01:07:12.088Z,-2.03
2023-02-09T01:08:12.049Z,-2.05
2023-02-09T01:09:12.093Z,-2.02
2023-02-09T01:10:12.043Z,-2.00
2023-02-09T01:11:12.042Z,-2.02
2023-02-09T01:12:11.974Z,-2.00
2023-02-09T01:13:12.017Z,-1.98
2023-02-09T01:14:11.988Z,-1.97
2023-02-09T01:15:11.976Z,-1.95
2023-02-09T01:16:11.956Z,-2.00
2023-02-09T01:17:11.958Z,-2.05
2023-02-09T01:18:11.920Z,-2.09
2023-02-09T01:19:11.953Z,-2.12
2023-02-09T01:20:11.908Z,-2.12
2023-02-09T01:21:11.904Z,-2.09
2023-02-09T01:22:11.856Z,-2.09
2023-02-09T01:23:11.891Z,-2.09
2023-02-09T01:24:11.817Z,-2.08
2023-02-09T01:25:11.864Z,-2.08
2023-02-09T01:26:11.821Z,-2.06
2023-02-09T01:27:11.819Z,-2.09
2023-02-09T01:28:11.842Z,-2.12
2023-02-09T01:29:11.816Z,-2.12
2023-02-09T01:30:11.766Z,-2.10
2023-02-09T01:31:11.864Z,-2.13
2023-02-09T01:32:11.780Z,-2.16
2023-02-09T01:33:11.758Z,-2.16
2023-02-09T01:34:11.711Z,-2.18
2023-02-09T01:35:11.728Z,-2.20
2023-02-09T01:36:11.682Z,-2.20
2023-02-09T01:37:11.726Z,-2.23
2023-02-09T01:38:11.670Z,-2.24
2023-02-09T01:39:11.662Z,-2.24
2023-02-09T01:40:11.660Z,-2.24
2023-02-09T01:41:11.653Z,-2.24
2023-02-09T01:42:11.620Z,-2.23
2023-02-09T01:43:11.637Z,-2.21
2023-02-09T01:44:11.594Z,-2.18
2023-02-09T01:45:11.588Z,-2.15
2023-02-09T01:46:11.583Z,-2.10
2023-02-09T01:47:11.571Z,-2.09
2023-02-09T01:48:11.557Z,-2.06
2023-02-09T01:49:11.563Z,-2.05
2023-02-09T01:50:11.565Z,-2.05
2023-02-09T01:51:11.561Z,-2.06
2023-02-09T01:52:11.501Z,-2.10
2023-02-09T01:53:11.492Z,-2.16
2023-02-09T01:54:11.453Z,-2.24
2023-02-09T01:55:11.477Z,-2.34
2023-02-09T01:56:11.448Z,-2.40
2023-02-09T01:57:11.439Z,-2.46
2023-02-09T01:58:11.412Z,-2.50
2023-02-09T01:59:11.413Z,-2.50
2023-02-09T02:00:11.389Z,-2.49
2023-02-09T02:01:11.479Z,-2.46
2023-02-09T02:02:11.375Z,-2.46
2023-02-09T02:03:11.364Z,-2.48
2023-02-09T02:04:11.350Z,-2.50
2023-02-09T02:05:11.339Z,-2.49
2023-02-09T02:06:11.296Z,-2.50
2023-02-09T02:07:11.328Z,-2.52
2023-02-09T02:08:11.298Z,-2.52
2023-02-09T02:09:11.309Z,-2.50
2023-02-09T02:10:11.254Z,-2.46
2023-02-09T02:11:11.264Z,-2.46
2023-02-09T02:12:11.222Z,-2.53
2023-02-09T02:13:11.262Z,-2.56
2023-02-09T02:14:11.207Z,-2.60
2023-02-09T02:15:11.278Z,-2.60
2023-02-09T02:16:11.272Z,-2.58
2023-02-09T02:17:11.181Z,-2.55
2023-02-09T02:18:11.187Z,-2.60
2023-02-09T02:19:11.164Z,-2.63
2023-02-09T02:20:11.128Z,-2.68
2023-02-09T02:21:11.139Z,-2.74
2023-02-09T02:22:11.088Z,-2.79
2023-02-09T02:23:11.109Z,-2.81
2023-02-09T02:24:11.093Z,-2.81
2023-02-09T02:25:11.084Z,-2.77
2023-02-09T02:26:11.038Z,-2.74
2023-02-09T02:27:11.043Z,-2.70
2023-02-09T02:28:11.058Z,-2.67
2023-02-09T02:29:11.075Z,-2.68
2023-02-09T02:30:11.005Z,-2.68
2023-02-09T02:31:11.108Z,-2.67
2023-02-09T02:32:10.973Z,-2.64
2023-02-09T02:33:10.974Z,-2.64
2023-02-09T02:34:10.952Z,-2.63
2023-02-09T02:35:11.013Z,-2.66
2023-02-09T02:36:10.911Z,-2.64
2023-02-09T02:37:10.920Z,-2.68
2023-02-09T02:38:10.887Z,-2.68
2023-02-09T02:39:10.906Z,-2.68
2023-02-09T02:40:10.914Z,-2.71
2023-02-09T02:41:10.875Z,-2.74
2023-02-09T02:42:10.833Z,-2.77
2023-02-09T02:43:10.860Z,-2.79
2023-02-09T02:44:10.825Z,-2.81
2023-02-09T02:45:10.832Z,-2.79
2023-02-09T02:46:10.806Z,-2.82
2023-02-09T02:47:10.831Z,-2.84
2023-02-09T02:48:10.752Z,-2.84
2023-02-09T02:49:10.792Z,-2.85
2023-02-09T02:50:10.751Z,-2.85
2023-02-09T02:51:10.764Z,-2.89
2023-02-09T02:52:10.737Z,-2.94
2023-02-09T02:53:10.728Z,-2.97
2023-02-09T02:54:10.699Z,-2.97
2023-02-09T02:55:10.713Z,-2.94
2023-02-09T02:56:10.692Z,-2.94
2023-02-09T02:57:10.683Z,-2.88
2023-02-09T02:58:10.633Z,-2.91
2023-02-09T02:59:10.669Z,-2.94
2023-02-09T03:00:10.651Z,-2.97
2023-02-09T03:01:10.667Z,-2.99
2023-02-09T03:02:10.581Z,-2.97
2023-02-09T03:03:10.595Z,-3.00
2023-02-09T03:04:10.591Z,-3.02
2023-02-09T03:05:10.624Z,-3.05
2023-02-09T03:06:10.556Z,-3.05
2023-02-09T03:07:10.549Z,-3.09
2023-02-09T03:08:10.523Z,-3.09
2023-02-09T03:09:10.539Z,-3.09
2023-02-09T03:10:10.511Z,-3.07
2023-02-09T03:11:10.556Z,-3.07
2023-02-09T03:12:10.472Z,-3.06
2023-02-09T03:13:10.484Z,-3.09
2023-02-09T03:14:10.436Z,-3.15
2023-02-09T03:19:51.269Z,-3.23
2023-02-09T03:20:52.259Z,-3.23
2023-02-09T03:21:52.256Z,-3.21
2023-02-09T03:22:52.196Z,-3.21
2023-02-09T03:23:52.226Z,-3.23
2023-02-09T03:24:52.167Z,-3.25
2023-02-09T03:25:52.181Z,-3.27
2023-02-09T03:26:52.147Z,-3.27
2023-02-09T03:27:52.232Z,-3.24
2023-02-09T03:28:52.120Z,-3.24
2023-02-09T03:29:52.140Z,-3.23
2023-02-09T03:30:52.206Z,-3.21
2023-02-09T03:31:52.206Z,-3.18
2023-02-09T03:32:52.078Z,-3.21
2023-02-09T03:33:52.086Z,-3.24
2023-02-09T03:34:52.050Z,-3.27
2023-02-09T03:35:52.100Z,-3.28
2023-02-09T03:36:52.045Z,-3.31
2023-02-09T03:37:52.059Z,-3.31
2023-02-09T03:38:51.992Z,-3.27
2023-02-09T03:39:52.006Z,-3.24
2023-02-09T03:40:52.002Z,-3.20
2023-02-09T03:41:52.005Z,-3.20
2023-02-09T03:42:51.948Z,-3.24
2023-02-09T03:43:51.966Z,-3.28
2023-02-09T03:44:51.916Z,-3.27
2023-02-09T03:45:51.934Z,-3.24
2023-02-09T03:46:52.050Z,-3.23
2023-02-09T03:47:51.924Z,-3.21
2023-02-09T03:48:51.885Z,-3.21
2023-02-09T03:49:51.910Z,-3.25
2023-02-09T03:50:51.872Z,-3.24
2023-02-09T03:51:51.865Z,-3.27
2023-02-09T03:52:51.828Z,-3.28
2023-02-09T03:53:51.840Z,-3.31
2023-02-09T03:54:51.811Z,-3.35
2023-02-09T03:55:51.809Z,-3.35
2023-02-09T03:56:51.788Z,-3.35
2023-02-09T03:57:51.785Z,-3.38
2023-02-09T03:58:51.780Z,-3.38
2023-02-09T03:59:51.747Z,-3.36
2023-02-09T04:00:51.806Z,-3.33
2023-02-09T04:01:51.737Z,-3.33
2023-02-09T04:02:51.784Z,-3.31
2023-02-09T04:03:51.719Z,-3.35
2023-02-09T04:04:51.680Z,-3.33
2023-02-09T04:05:51.680Z,-3.33
2023-02-09T04:06:51.653Z,-3.33
2023-02-09T04:07:51.683Z,-3.30
2023-02-09T04:08:51.628Z,-3.27
2023-02-09T04:09:51.625Z,-3.24
2023-02-09T04:10:51.605Z,-3.24
2023-02-09T04:11:51.617Z,-3.27
2023-02-09T04:12:51.620Z,-3.30
2023-02-09T04:13:51.596Z,-3.27
2023-02-09T04:14:51.603Z,-3.27
2023-02-09T04:15:51.602Z,-3.24
2023-02-09T04:16:51.517Z,-3.23
2023-02-09T04:17:51.562Z,-3.27
2023-02-09T04:18:51.503Z,-3.33
2023-02-09T04:19:51.516Z,-3.41
2023-02-09T04:20:51.514Z,-3.48
2023-02-09T04:21:51.469Z,-3.59
2023-02-09T04:22:51.474Z,-3.64
2023-02-09T04:23:51.430Z,-3.81
2023-02-09T04:24:51.446Z,-3.94
2023-02-09T04:25:51.429Z,-4.07
2023-02-09T04:26:51.426Z,-4.21
2023-02-09T04:27:51.403Z,-4.28
2023-02-09T04:28:51.413Z,-4.30
2023-02-09T04:29:51.369Z,-4.24
2023-02-09T04:30:51.411Z,-4.18
2023-02-09T04:31:51.388Z,-4.11
2023-02-09T04:32:51.359Z,-4.04
2023-02-09T04:33:51.331Z,-4.01
2023-02-09T04:34:51.362Z,-3.97
2023-02-09T04:35:51.299Z,-3.94
2023-02-09T04:36:51.318Z,-3.90
2023-02-09T04:37:51.277Z,-3.86
2023-02-09T04:38:51.296Z,-3.79
2023-02-09T04:39:51.272Z,-3.76
2023-02-09T04:40:51.280Z,-3.76
2023-02-09T04:41:51.229Z,-3.78
2023-02-09T04:42:51.220Z,-3.81
2023-02-09T04:43:51.187Z,-3.83
2023-02-09T04:44:51.206Z,-3.83
2023-02-09T04:45:51.305Z,-3.88
2023-02-09T04:46:51.224Z,-3.96
2023-02-09T04:47:51.140Z,-4.03
2023-02-09T04:48:51.150Z,-4.11
2023-02-09T04:49:51.121Z,-4.17
2023-02-09T04:50:51.126Z,-4.22
2023-02-09T04:51:51.121Z,-4.29
2023-02-09T04:52:51.105Z,-4.36
2023-02-09T04:53:51.060Z,-4.36
2023-02-09T04:54:51.096Z,-4.39
2023-02-09T04:55:51.053Z,-4.51
2023-02-09T04:56:51.053Z,-4.54
2023-02-09T04:57:51.031Z,-4.50
2023-02-09T04:58:51.032Z,-4.46
2023-02-09T04:59:51.003Z,-4.40
2023-02-09T05:00:51.029Z,-4.35
2023-02-09T05:01:50.984Z,-4.30
2023-02-09T05:02:51.032Z,-4.25
2023-02-09T05:03:50.990Z,-4.25
2023-02-09T05:04:50.957Z,-4.28
2023-02-09T05:05:50.921Z,-4.29
2023-02-09T05:06:50.931Z,-4.32
2023-02-09T05:07:50.893Z,-4.30
2023-02-09T05:08:50.916Z,-4.28
2023-02-09T05:09:50.880Z,-4.22
2023-02-09T05:10:50.894Z,-4.22
2023-02-09T05:11:50.853Z,-4.21
2023-02-09T05:12:50.871Z,-4.18
2023-02-09T05:13:50.829Z,-4.20
2023-02-09T05:14:50.840Z,-4.18
2023-02-09T05:15:50.806Z,-4.18
2023-02-09T05:16:50.890Z,-4.18
2023-02-09T05:17:50.793Z,-4.14
2023-02-09T05:18:50.789Z,-4.12
2023-02-09T05:19:50.749Z,-4.14
2023-02-09T05:20:50.778Z,-4.14
2023-02-09T05:21:50.717Z,-4.15
2023-02-09T05:22:50.765Z,-4.12
2023-02-09T05:23:50.696Z,-4.12
2023-02-09T05:24:50.765Z,-4.12
2023-02-09T05:25:50.671Z,-4.11
2023-02-09T05:26:51.667Z,-4.12
2023-02-09T05:27:50.705Z,-4.07
2023-02-09T05:28:50.657Z,-4.06
2023-02-09T05:29:50.629Z,-4.03
2023-02-09T05:30:50.658Z,-4.00
2023-02-09T05:31:50.676Z,-3.96
2023-02-09T05:32:50.639Z,-3.97
2023-02-09T05:33:50.569Z,-3.96
2023-02-09T05:34:50.601Z,-3.99
2023-02-09T05:35:50.565Z,-3.99
2023-02-09T05:36:50.565Z,-4.03
2023-02-09T05:37:50.556Z,-4.06
2023-02-09T05:38:50.533Z,-4.10
2023-02-09T05:39:50.505Z,-4.06
2023-02-09T05:40:51.045Z,-4.04
2023-02-09T05:41:50.498Z,-3.99
2023-02-09T05:42:50.556Z,-3.97
2023-02-09T05:43:50.469Z,-3.99
2023-02-09T05:44:50.468Z,-4.00
2023-02-09T05:45:50.526Z,-4.04
2023-02-09T05:46:50.461Z,-4.01
2023-02-09T05:47:50.408Z,-3.99
2023-02-09T05:48:50.415Z,-3.96
2023-02-09T05:49:50.380Z,-3.93
2023-02-09T05:50:50.392Z,-3.93
2023-02-09T05:51:50.373Z,-3.94
2023-02-09T05:52:50.356Z,-4.00
2023-02-09T05:53:50.314Z,-4.07
2023-02-09T05:54:50.351Z,-4.14
2023-02-09T05:55:50.305Z,-4.17
2023-02-09T05:56:50.303Z,-4.17
2023-02-09T05:57:50.290Z,-4.17
2023-02-09T05:58:50.290Z,-4.17
2023-02-09T05:59:50.294Z,-4.17
2023-02-09T06:00:50.277Z,-4.18
2023-02-09T06:01:50.268Z,-4.18
2023-02-09T06:02:50.263Z,-4.20
2023-02-09T06:03:50.209Z,-4.21
2023-02-09T06:04:50.220Z,-4.21
2023-02-09T06:05:50.170Z,-4.24
2023-02-09T06:06:50.200Z,-4.24
2023-02-09T06:07:50.149Z,-4.25
2023-02-09T06:08:50.179Z,-4.28
2023-02-09T06:09:50.132Z,-4.28
2023-02-09T06:10:50.151Z,-4.28
2023-02-09T06:11:50.118Z,-4.24
2023-02-09T06:12:50.099Z,-4.20
2023-02-09T06:13:50.079Z,-4.17
2023-02-09T06:14:50.100Z,-4.14
2023-02-09T06:15:50.079Z,-4.12
2023-02-09T06:16:50.084Z,-4.07
2023-02-09T06:17:50.028Z,-4.06
2023-02-09T06:18:50.042Z,-4.06
2023-02-09T06:19:50.016Z,-4.06
2023-02-09T06:20:50.023Z,-4.04
2023-02-09T06:21:49.979Z,-4.04
2023-02-09T06:22:50.011Z,-4.07
2023-02-09T06:23:49.945Z,-4.10
2023-02-09T06:24:49.970Z,-4.07
2023-02-09T06:25:49.959Z,-4.10
2023-02-09T06:26:49.945Z,-4.12
2023-02-09T06:27:50.067Z,-4.15
2023-02-09T06:28:49.947Z,-4.15
2023-02-09T06:29:49.880Z,-4.14
2023-02-09T06:30:50.552Z,-4.12
2023-02-09T06:31:50.019Z,-4.11
2023-02-09T06:32:49.915Z,-4.11
2023-02-09T06:33:49.835Z,-4.10
2023-02-09T06:34:49.890Z,-4.14
2023-02-09T06:35:52.234Z,-4.20
2023-02-09T06:36:49.813Z,-4.29
2023-02-09T06:37:49.787Z,-4.38
2023-02-09T06:38:49.792Z,-4.42
2023-02-09T06:39:49.790Z,-4.49
2023-02-09T06:40:49.785Z,-4.51
2023-02-09T06:41:49.753Z,-4.50
2023-02-09T06:42:49.779Z,-4.49
2023-02-09T06:43:49.725Z,-4.43
2023-02-09T06:44:49.733Z,-4.42
2023-02-09T06:45:49.703Z,-4.39
2023-02-09T06:46:49.719Z,-4.38
2023-02-09T06:47:49.676Z,-4.33
2023-02-09T06:48:49.675Z,-4.32
2023-02-09T06:49:49.670Z,-4.33
2023-02-09T06:50:49.661Z,-4.38
2023-02-09T06:51:49.646Z,-4.40
2023-02-09T06:52:49.625Z,-4.39
2023-02-09T06:53:49.581Z,-4.40
2023-02-09T06:54:49.606Z,-4.36
2023-02-09T06:55:49.568Z,-4.32
2023-02-09T06:56:49.620Z,-4.29
2023-02-09T06:57:49.532Z,-4.28
2023-02-09T06:58:49.585Z,-4.24
2023-02-09T06:59:49.540Z,-4.21
2023-02-09T07:00:49.540Z,-4.21
2023-02-09T07:01:49.533Z,-4.21
2023-02-09T07:02:49.582Z,-4.25
2023-02-09T07:03:49.459Z,-4.32
2023-02-09T07:04:49.509Z,-4.38
2023-02-09T07:05:49.438Z,-4.36
2023-02-09T07:06:49.455Z,-4.33
2023-02-09T07:07:49.415Z,-4.29
2023-02-09T07:08:49.441Z,-4.28
2023-02-09T07:09:49.422Z,-4.21
2023-02-09T07:10:49.421Z,-4.18
2023-02-09T07:11:49.344Z,-4.20
2023-02-09T07:12:49.399Z,-4.17
2023-02-09T07:13:49.330Z,-4.12
2023-02-09T07:14:49.388Z,-4.14
2023-02-09T07:15:49.408Z,-4.18
2023-02-09T07:16:49.356Z,-4.24
2023-02-09T07:17:49.288Z,-4.30
2023-02-09T07:18:49.354Z,-4.39
2023-02-09T07:19:49.323Z,-4.50
2023-02-09T07:20:49.304Z,-4.53
2023-02-09T07:21:49.266Z,-4.53
2023-02-09T07:22:49.255Z,-4.56
2023-02-09T07:23:49.216Z,-4.53
2023-02-09T07:24:49.250Z,-4.56
2023-02-09T07:25:49.217Z,-4.57
2023-02-09T07:26:49.213Z,-4.57
2023-02-09T07:27:49.196Z,-4.56
2023-02-09T07:28:49.179Z,-4.54
2023-02-09T07:29:49.139Z,-4.53
2023-02-09T07:30:49.409Z,-4.47
2023-02-09T07:31:49.183Z,-4.40
2023-02-09T07:32:49.144Z,-4.32
2023-02-09T07:33:49.127Z,-4.25
2023-02-09T07:34:49.114Z,-4.20
2023-02-09T07:35:49.088Z,-4.12
2023-02-09T07:36:49.079Z,-4.07
2023-02-09T07:37:49.057Z,-3.99
2023-02-09T07:38:49.048Z,-3.88
2023-02-09T07:39:49.013Z,-3.76
2023-02-09T07:40:49.030Z,-3.62
2023-02-09T07:41:49.010Z,-3.46
2023-02-09T07:42:49.001Z,-3.38
2023-02-09T07:43:48.974Z,-3.30
2023-02-09T07:44:48.985Z,-3.28
2023-02-09T07:45:48.937Z,-3.25
2023-02-09T07:46:49.028Z,-3.20
2023-02-09T07:47:48.939Z,-3.17
2023-02-09T07:48:48.921Z,-3.20
2023-02-09T07:49:48.947Z,-3.23
2023-02-09T07:50:48.902Z,-3.23
2023-02-09T07:51:48.894Z,-3.23
2023-02-09T07:52:48.880Z,-3.24
2023-02-09T07:53:48.865Z,-3.24
2023-02-09T07:54:48.848Z,-3.21
2023-02-09T07:55:48.883Z,-3.23
2023-02-09T07:56:48.880Z,-3.25
2023-02-09T07:57:48.802Z,-3.21
2023-02-09T07:58:48.783Z,-3.20
2023-02-09T07:59:48.751Z,-3.18
2023-02-09T08:00:49.271Z,-3.17
2023-02-09T08:01:48.822Z,-3.14
2023-02-09T08:02:48.754Z,-3.12
2023-02-09T08:03:48.710Z,-3.10
2023-02-09T08:04:48.826Z,-3.07
2023-02-09T08:05:48.994Z,-3.09
2023-02-09T08:06:48.697Z,-3.03
2023-02-09T08:07:48.688Z,-2.94
2023-02-09T08:08:48.724Z,-2.82
2023-02-09T08:09:48.632Z,-2.77
2023-02-09T08:10:48.643Z,-2.68
2023-02-09T08:11:48.681Z,-2.63
2023-02-09T08:12:48.607Z,-2.56
2023-02-09T08:13:48.657Z,-2.52
2023-02-09T08:14:48.671Z,-2.48
2023-02-09T08:15:48.960Z,-2.46
2023-02-09T08:16:48.579Z,-2.48
2023-02-09T08:17:48.543Z,-2.45
2023-02-09T08:18:48.552Z,-2.49
2023-02-09T08:19:48.522Z,-2.49
2023-02-09T08:20:48.495Z,-2.46
2023-02-09T08:21:48.481Z,-2.45
2023-02-09T08:22:48.491Z,-2.42
2023-02-09T08:23:48.500Z,-2.35
2023-02-09T08:24:48.476Z,-2.32
2023-02-09T08:25:48.787Z,-2.29
2023-02-09T08:26:48.443Z,-2.29
2023-02-09T08:27:48.421Z,-2.27
2023-02-09T08:28:48.499Z,-2.27
2023-02-09T08:29:49.130Z,-2.23
2023-02-09T08:30:48.456Z,-2.20
2023-02-09T08:31:48.408Z,-2.13
2023-02-09T08:32:48.352Z,-2.12
2023-02-09T08:33:48.330Z,-2.09
2023-02-09T08:34:48.337Z,-2.05
2023-02-09T08:35:48.747Z,-2.03
2023-02-09T08:36:48.322Z,-2.00
2023-02-09T08:37:48.294Z,-1.95
2023-02-09T08:38:48.326Z,-1.92
2023-02-09T08:39:48.284Z,-1.88
2023-02-09T08:40:48.232Z,-1.84
2023-02-09T08:41:48.273Z,-1.82
2023-02-09T08:42:48.197Z,-1.74
2023-02-09T08:43:48.193Z,-1.67
2023-02-09T08:44:48.190Z,-1.64
2023-02-09T08:45:48.894Z,-1.56
2023-02-09T08:46:48.414Z,-1.49
2023-02-09T08:47:48.171Z,-1.37
2023-02-09T08:48:48.152Z,-1.30
2023-02-09T08:49:48.178Z,-1.22
2023-02-09T08:50:48.119Z,-1.09
2023-02-09T08:51:48.120Z,-1.04
2023-02-09T08:52:48.072Z,-1.01
2023-02-09T08:53:48.105Z,-0.98
2023-02-09T08:54:48.088Z,-0.97
2023-02-09T08:55:48.673Z,-0.94
2023-02-09T08:56:48.048Z,-0.85
2023-02-09T08:57:48.038Z,-0.75
2023-02-09T08:58:48.002Z,-0.62
2023-02-09T08:59:48.055Z,-0.47
2023-02-09T09:00:48.055Z,-0.34
2023-02-09T09:01:48.056Z,-0.19
2023-02-09T09:02:47.972Z,-0.05
2023-02-09T09:03:48.090Z,0.04
2023-02-09T09:04:47.925Z,0.15
2023-02-09T09:05:48.209Z,0.17
2023-02-09T09:06:47.943Z,0.23
2023-02-09T09:07:47.924Z,0.36
2023-02-09T09:08:47.882Z,0.65
2023-02-09T09:09:47.916Z,0.86
2023-02-09T09:10:47.849Z,1.06
2023-02-09T09:11:47.874Z,1.32
2023-02-09T09:12:47.827Z,1.50
2023-02-09T09:13:47.838Z,1.60
2023-02-09T09:14:47.841Z,1.59
2023-02-09T09:15:48.228Z,1.58
2023-02-09T09:16:47.809Z,1.58
2023-02-09T09:17:47.785Z,1.48
2023-02-09T09:18:47.790Z,1.58
2023-02-09T09:19:47.762Z,1.76
2023-02-09T09:20:47.719Z,1.90
2023-02-09T09:21:47.730Z,1.84
2023-02-09T09:22:47.706Z,1.80
2023-02-09T09:23:47.733Z,1.80
2023-02-09T09:24:47.660Z,1.77
2023-02-09T09:25:48.036Z,1.90
2023-02-09T09:26:47.650Z,1.98
2023-02-09T09:27:47.659Z,1.95
2023-02-09T09:28:47.626Z,2.12
2023-02-09T09:29:47.661Z,2.27
2023-02-09T09:30:47.606Z,2.18
2023-02-09T09:31:47.627Z,2.12
2023-02-09T09:32:47.611Z,2.07
2023-02-09T09:33:47.585Z,2.05
2023-02-09T09:34:47.531Z,2.05
2023-02-09T09:35:47.935Z,2.14
2023-02-09T09:36:47.512Z,2.21
2023-02-09T09:37:47.537Z,2.21
2023-02-09T09:38:47.508Z,2.12
2023-02-09T09:39:47.503Z,2.02
2023-02-09T09:40:47.467Z,1.84
2023-02-09T09:41:47.487Z,1.70
2023-02-09T09:42:47.451Z,1.63
2023-02-09T09:43:47.446Z,1.65
2023-02-09T09:44:47.549Z,1.73
2023-02-09T09:45:47.853Z,1.79
2023-02-09T09:46:47.378Z,1.80
2023-02-09T09:47:47.418Z,1.95
2023-02-09T09:48:47.376Z,2.03
2023-02-09T09:49:47.413Z,2.07
2023-02-09T09:50:47.365Z,2.18
2023-02-09T09:51:47.362Z,2.43
2023-02-09T09:52:47.299Z,2.66
2023-02-09T09:53:47.344Z,2.66
2023-02-09T09:54:47.285Z,2.59
2023-02-09T09:55:47.651Z,2.54
2023-02-09T09:56:47.256Z,2.45
2023-02-09T09:57:47.261Z,2.69
2023-02-09T09:58:47.253Z,2.84
2023-02-09T09:59:47.235Z,2.95
2023-02-09T10:00:47.207Z,3.03
2023-02-09T10:01:47.206Z,3.36
2023-02-09T10:02:47.160Z,3.50
2023-02-09T10:03:47.206Z,3.68
2023-02-09T10:04:47.174Z,3.72
2023-02-09T10:05:47.581Z,3.69
2023-02-09T10:06:47.116Z,3.79
2023-02-09T10:07:47.157Z,4.06
2023-02-09T10:08:47.118Z,4.23
2023-02-09T10:09:47.110Z,4.32
2023-02-09T10:10:47.349Z,4.42
2023-02-09T10:11:47.066Z,4.47
2023-02-09T10:12:47.034Z,4.37
2023-02-09T10:13:47.077Z,4.12
2023-02-09T10:14:47.011Z,3.93
2023-02-09T10:15:47.382Z,3.66
2023-02-09T10:16:47.060Z,3.57
2023-02-09T10:17:46.991Z,3.78
2023-02-09T10:18:46.972Z,4.09
2023-02-09T10:19:46.955Z,4.33
2023-02-09T10:20:46.938Z,4.33
2023-02-09T10:21:46.935Z,4.30
2023-02-09T10:22:46.899Z,4.14
2023-02-09T10:23:46.913Z,4.06
2023-02-09T10:24:46.893Z,3.98
2023-02-09T10:25:47.262Z,3.87
2023-02-09T10:26:46.853Z,3.78
2023-02-09T10:27:46.855Z,3.60
2023-02-09T10:28:46.853Z,3.40
2023-02-09T10:29:46.847Z,3.03
2023-02-09T10:30:46.970Z,2.81
2023-02-09T10:31:47.002Z,2.66
2023-02-09T10:32:46.758Z,2.54
2023-02-09T10:33:46.848Z,2.41
2023-02-09T10:34:46.764Z,2.35
2023-02-09T10:35:47.165Z,2.34
2023-02-09T10:36:46.717Z,2.46
2023-02-09T10:37:46.729Z,2.43
2023-02-09T10:38:46.679Z,2.23
2023-02-09T10:39:46.735Z,1.95
2023-02-09T10:40:46.683Z,1.91
2023-02-09T10:41:46.682Z,1.88
2023-02-09T10:42:46.621Z,1.87
2023-02-09T10:43:46.661Z,1.91
2023-02-09T10:44:46.631Z,1.86
2023-02-09T10:45:46.973Z,1.70
2023-02-09T10:46:46.600Z,1.55
2023-02-09T10:47:46.592Z,1.48
2023-02-09T10:48:46.562Z,1.51
2023-02-09T10:49:46.598Z,1.63
2023-02-09T10:50:46.552Z,1.72
2023-02-09T10:51:46.552Z,1.81
2023-02-09T10:52:46.488Z,1.86
2023-02-09T10:53:46.530Z,1.93
2023-02-09T10:54:46.486Z,1.98
2023-02-09T10:55:46.835Z,1.95
2023-02-09T10:56:46.479Z,1.99
2023-02-09T10:57:46.485Z,2.07
2023-02-09T10:58:46.414Z,2.18
2023-02-09T10:59:46.431Z,2.21
2023-02-09T11:00:46.445Z,2.28
2023-02-09T11:01:46.443Z,2.36
2023-02-09T11:02:46.377Z,2.43
2023-02-09T11:03:46.402Z,2.46
2023-02-09T11:04:46.403Z,2.38
2023-02-09T11:05:46.667Z,2.27
2023-02-09T11:06:46.429Z,2.21
2023-02-09T11:07:46.340Z,2.23
2023-02-09T11:08:46.335Z,2.17
2023-02-09T11:09:46.308Z,2.06
2023-02-09T11:10:46.272Z,1.99
2023-02-09T11:11:46.293Z,1.90
2023-02-09T11:12:46.291Z,1.84
2023-02-09T11:13:46.249Z,1.84
2023-02-09T11:14:46.203Z,1.91
2023-02-09T11:15:46.581Z,1.99
2023-02-09T11:16:46.294Z,2.03
2023-02-09T11:17:46.202Z,2.00
2023-02-09T11:18:46.197Z,1.93
2023-02-09T11:19:46.169Z,1.87
2023-02-09T11:20:46.149Z,1.87
2023-02-09T11:21:46.195Z,1.93
2023-02-09T11:22:46.117Z,2.09
2023-02-09T11:23:46.143Z,2.24
2023-02-09T11:24:46.088Z,2.35
2023-02-09T11:25:46.566Z,2.42
2023-02-09T11:26:46.073Z,2.39
2023-02-09T11:27:46.067Z,2.41
2023-02-09T11:28:46.024Z,2.45
2023-02-09T11:29:46.070Z,2.56
2023-02-09T11:30:46.534Z,2.61
2023-02-09T11:31:46.197Z,2.59
2023-02-09T11:32:46.004Z,2.57
2023-02-09T11:33:45.986Z,2.59
2023-02-09T11:34:45.963Z,2.64
2023-02-09T11:35:45.979Z,2.69
2023-02-09T11:36:45.921Z,2.74
2023-02-09T11:37:45.936Z,2.79
2023-02-09T11:38:45.901Z,2.84
2023-02-09T11:39:45.930Z,2.92
2023-02-09T11:40:46.301Z,2.85
2023-02-09T11:41:45.899Z,2.81
2023-02-09T11:42:45.868Z,2.84
2023-02-09T11:43:45.885Z,2.93
2023-02-09T11:44:45.811Z,2.96
2023-02-09T11:45:45.837Z,2.99
2023-02-09T11:46:45.890Z,2.95
2023-02-09T11:47:45.811Z,2.93
2023-02-09T11:48:45.781Z,2.90
2023-02-09T11:49:45.778Z,2.89
2023-02-09T11:50:46.165Z,2.87
2023-02-09T11:51:45.789Z,2.87
2023-02-09T11:52:45.765Z,2.82
2023-02-09T11:53:45.746Z,2.79
2023-02-09T11:54:45.693Z,2.77
2023-02-09T11:55:45.702Z,2.84
2023-02-09T11:56:45.700Z,2.84
2023-02-09T11:57:45.701Z,2.89
2023-02-09T11:58:45.679Z,2.90
2023-02-09T11:59:45.648Z,2.92
2023-02-09T12:00:55.956Z,2.90
2023-02-09T12:01:45.638Z,2.95
2023-02-09T12:02:45.663Z,3.06
2023-02-09T12:03:45.614Z,3.10
2023-02-09T12:04:45.574Z,3.00
2023-02-09T12:05:45.574Z,2.93
2023-02-09T12:06:45.580Z,2.87
2023-02-09T12:07:45.566Z,2.81
2023-02-09T12:08:45.533Z,2.78
2023-02-09T12:09:45.523Z,2.74
2023-02-09T12:10:45.669Z,2.69
2023-02-09T12:11:45.490Z,2.63
2023-02-09T12:12:45.469Z,2.66
2023-02-09T12:13:45.473Z,2.67
2023-02-09T12:14:45.472Z,2.71
2023-02-09T12:15:45.506Z,2.74
2023-02-09T12:16:45.405Z,2.74
2023-02-09T12:17:45.428Z,2.81
2023-02-09T12:18:45.428Z,2.82
2023-02-09T12:19:45.441Z,2.84
2023-02-09T12:20:45.689Z,2.87
2023-02-09T12:21:45.381Z,2.95
2023-02-09T12:22:45.334Z,3.00
2023-02-09T12:23:45.347Z,3.08
2023-02-09T12:24:45.305Z,3.10
2023-02-09T12:25:45.346Z,3.13
2023-02-09T12:26:45.295Z,3.20
2023-02-09T12:27:45.283Z,3.31
2023-02-09T12:28:45.261Z,3.39
2023-02-09T12:29:45.261Z,3.42
2023-02-09T12:30:45.586Z,3.43
2023-02-09T12:31:46.446Z,3.43
2023-02-09T12:32:45.193Z,3.35
2023-02-09T12:33:45.215Z,3.33
2023-02-09T12:34:45.176Z,3.33
2023-02-09T12:35:45.193Z,3.35
2023-02-09T12:36:45.157Z,3.32
2023-02-09T12:37:45.197Z,3.33
2023-02-09T12:38:49.321Z,3.36
2023-02-09T12:39:45.143Z,3.40
2023-02-09T12:40:45.406Z,3.43
2023-02-09T12:41:45.163Z,3.43
2023-02-09T12:42:45.052Z,3.40
2023-02-09T12:43:45.144Z,3.39
2023-02-09T12:44:45.033Z,3.35
2023-02-09T12:45:45.592Z,3.36
2023-02-09T12:46:45.212Z,3.39
2023-02-09T12:47:45.030Z,3.47
2023-02-09T12:48:44.992Z,3.47
2023-02-09T12:49:45.006Z,3.48
2023-02-09T12:50:44.976Z,3.51
2023-02-09T12:51:44.971Z,3.52
2023-02-09T12:52:44.990Z,3.51
2023-02-09T12:53:44.925Z,3.52
2023-02-09T12:54:44.937Z,3.51
2023-02-09T12:55:45.384Z,3.54
2023-02-09T12:56:44.907Z,3.51
2023-02-09T12:57:47.242Z,3.52
2023-02-09T12:58:44.888Z,3.51
2023-02-09T12:59:44.848Z,3.51
2023-02-09T13:00:44.878Z,3.55
2023-02-09T13:01:44.805Z,3.57
2023-02-09T13:02:44.863Z,3.60
2023-02-09T13:03:44.857Z,3.66
2023-02-09T13:04:44.829Z,3.65